Time;durP1;ratioP1;P1;durP2;ratioP2;P2;SDS_P1;SDS_P2;PMS_P1;PMS_P2;Temp;Humidity;BMP_temperature;BMP_pressure;BME280_temperature;BME280_humidity;BME280_pressure;Samples;Min_cycle;Max_cycle;Signal;HPM_P1;HPM_P2
2023/08/17 00:01:55;;;;;;;16.58;9.05;;;20.20;99.90;;;;;;5024129;28;20321;-52
2023/08/17 00:04:20;;;;;;;13.43;8.00;;;20.20;99.90;;;;;;5026005;28;20456;-54
2023/08/17 00:06:46;;;;;;;14.70;8.52;;;20.20;99.90;;;;;;5027524;28;20029;-54
2023/08/17 00:09:12;;;;;;;15.32;8.95;;;20.10;99.90;;;;;;5031522;28;20108;-54
2023/08/17 00:11:38;;;;;;;15.93;8.43;;;20.10;99.90;;;;;;5024862;28;20106;-52
2023/08/17 00:14:05;;;;;;;13.98;9.02;;;20.10;99.90;;;;;;5029746;28;20029;-53
2023/08/17 00:16:31;;;;;;;16.45;9.05;;;20.10;99.90;;;;;;5026667;28;20094;-54
2023/08/17 00:18:57;;;;;;;13.82;8.60;;;20.10;99.90;;;;;;5026874;28;20038;-52
2023/08/17 00:21:22;;;;;;;17.25;9.55;;;20.10;99.90;;;;;;5024425;28;20026;-54
2023/08/17 00:23:48;;;;;;;16.05;9.30;;;20.10;99.90;;;;;;5026779;28;20158;-54
2023/08/17 00:26:14;;;;;;;13.43;8.40;;;20.10;99.90;;;;;;5026206;28;20112;-56
2023/08/17 00:28:40;;;;;;;16.23;8.45;;;20.10;99.90;;;;;;5024261;28;20036;-54
2023/08/17 00:31:05;;;;;;;10.77;7.25;;;20.00;99.90;;;;;;5027748;28;20116;-54
2023/08/17 00:33:31;;;;;;;14.57;8.63;;;20.00;99.90;;;;;;5028033;28;20400;-55
2023/08/17 00:35:57;;;;;;;13.35;8.18;;;20.00;99.90;;;;;;5028455;28;20108;-52
2023/08/17 00:38:22;;;;;;;12.30;7.38;;;20.10;99.90;;;;;;5024367;28;20492;-53
2023/08/17 00:40:48;;;;;;;13.18;8.25;;;20.10;99.90;;;;;;5027186;28;20033;-54
2023/08/17 00:43:14;;;;;;;12.73;7.97;;;20.10;99.90;;;;;;5025658;28;20489;-54
2023/08/17 00:45:40;;;;;;;11.30;7.70;;;20.00;99.90;;;;;;5023542;28;20048;-56
2023/08/17 00:48:07;;;;;;;14.63;8.00;;;20.00;99.90;;;;;;5026102;28;20037;-54
2023/08/17 00:50:34;;;;;;;16.70;8.30;;;19.90;99.90;;;;;;5027118;28;20071;-56
2023/08/17 00:53:00;;;;;;;16.40;7.72;;;19.90;99.90;;;;;;5027833;28;20026;-53
2023/08/17 00:55:26;;;;;;;13.20;7.35;;;19.90;99.90;;;;;;5028182;28;20021;-54
2023/08/17 00:57:53;;;;;;;14.68;8.05;;;19.90;99.90;;;;;;5026274;28;20393;-53
2023/08/17 01:00:20;;;;;;;20.27;8.02;;;19.80;99.90;;;;;;5024502;28;20175;-51
2023/08/17 01:02:46;;;;;;;8.98;6.88;;;19.80;99.90;;;;;;5021716;28;20971;-50
2023/08/17 01:05:13;;;;;;;11.38;7.53;;;19.80;99.90;;;;;;5024715;28;20378;-51
2023/08/17 01:07:38;;;;;;;14.73;8.27;;;19.90;99.90;;;;;;5020761;28;21189;-51
2023/08/17 01:10:06;;;;;;;13.35;8.07;;;19.80;99.90;;;;;;5027787;28;20511;-51
2023/08/17 01:12:36;;;;;;;10.73;8.15;;;19.80;99.90;;;;;;5027255;28;20113;-54
2023/08/17 01:15:10;;;;;;;18.33;7.93;;;19.80;99.90;;;;;;5027603;28;20566;-55
2023/08/17 01:17:58;;;;;;;14.73;8.77;;;19.80;99.90;;;;;;5027174;28;20393;-50
2023/08/17 01:20:24;;;;;;;16.08;8.52;;;19.80;99.90;;;;;;5027900;28;20080;-51
2023/08/17 01:22:52;;;;;;;10.70;7.60;;;19.80;99.90;;;;;;5024044;28;20033;-51
2023/08/17 01:25:17;;;;;;;16.73;8.05;;;19.70;99.90;;;;;;5023765;28;20029;-51
2023/08/17 01:27:45;;;;;;;15.88;8.43;;;19.70;99.90;;;;;;5023810;28;20164;-51
2023/08/17 01:30:14;;;;;;;13.00;7.95;;;19.70;99.90;;;;;;5021862;28;20497;-54
2023/08/17 01:33:06;;;;;;;15.40;8.18;;;19.70;99.90;;;;;;5025243;28;20032;-54
2023/08/17 01:36:03;;;;;;;12.48;7.60;;;19.70;99.90;;;;;;5023852;28;20021;-52
2023/08/17 01:38:29;;;;;;;16.95;8.30;;;19.70;99.90;;;;;;5023977;28;20484;-52
2023/08/17 01:40:56;;;;;;;12.85;8.60;;;19.60;99.90;;;;;;5021546;28;20099;-53
2023/08/17 01:43:22;;;;;;;12.07;8.05;;;19.60;99.90;;;;;;5022327;28;20033;-55
2023/08/17 01:45:48;;;;;;;15.52;8.40;;;19.50;99.90;;;;;;5017384;28;20036;-54
2023/08/17 01:48:13;;;;;;;15.50;7.70;;;19.50;99.90;;;;;;5023701;28;20026;-53
2023/08/17 01:50:39;;;;;;;9.77;6.95;;;19.50;99.90;;;;;;5025859;28;20029;-54
2023/08/17 01:53:05;;;;;;;9.73;7.70;;;19.50;99.90;;;;;;5025557;28;20033;-56
2023/08/17 01:55:30;;;;;;;15.55;8.27;;;19.50;99.90;;;;;;5023680;28;20021;-55
2023/08/17 01:57:56;;;;;;;12.80;9.05;;;19.50;99.90;;;;;;5021795;28;20392;-56
2023/08/17 02:00:21;;;;;;;11.52;7.78;;;19.50;99.90;;;;;;5023683;28;20029;-52
2023/08/17 02:02:47;;;;;;;19.08;7.95;;;19.50;99.90;;;;;;5024952;28;20026;-52
2023/08/17 02:05:12;;;;;;;12.23;7.50;;;19.40;99.90;;;;;;5026683;28;20025;-52
2023/08/17 02:07:38;;;;;;;13.07;7.18;;;19.50;99.90;;;;;;5025462;28;20040;-56
2023/08/17 02:10:04;;;;;;;13.82;7.68;;;19.50;99.90;;;;;;5023997;28;20030;-54
2023/08/17 02:12:29;;;;;;;14.20;7.68;;;19.50;99.90;;;;;;5025715;28;20033;-52
2023/08/17 02:14:55;;;;;;;11.27;7.35;;;19.50;99.90;;;;;;5021989;28;20033;-55
2023/08/17 02:17:22;;;;;;;10.70;6.25;;;19.50;99.90;;;;;;5020623;28;20044;-52
2023/08/17 02:19:48;;;;;;;13.07;7.20;;;19.60;99.90;;;;;;5029171;28;20517;-53
2023/08/17 02:22:14;;;;;;;10.10;6.93;;;19.60;99.90;;;;;;5030703;28;20107;-55
2023/08/17 02:24:40;;;;;;;9.82;5.85;;;19.60;99.90;;;;;;5029479;28;20029;-54
2023/08/17 02:27:06;;;;;;;8.45;5.93;;;19.60;99.90;;;;;;5028423;28;20041;-53
2023/08/17 02:29:32;;;;;;;9.65;5.93;;;19.60;99.90;;;;;;5028973;28;20025;-55
2023/08/17 02:31:57;;;;;;;9.10;5.97;;;19.60;99.90;;;;;;5026062;28;20037;-55
2023/08/17 02:34:23;;;;;;;10.35;5.47;;;19.60;99.90;;;;;;5028149;28;20043;-55
2023/08/17 02:36:48;;;;;;;16.30;6.85;;;19.60;99.90;;;;;;5028874;28;20026;-56
2023/08/17 02:39:14;;;;;;;8.50;6.05;;;19.60;99.90;;;;;;5026976;28;20021;-52
2023/08/17 02:41:40;;;;;;;10.27;6.13;;;19.60;99.90;;;;;;5025297;28;20500;-55
2023/08/17 02:44:06;;;;;;;7.55;6.43;;;19.50;99.90;;;;;;5027966;28;20112;-55
2023/08/17 02:46:31;;;;;;;13.48;6.80;;;19.50;99.90;;;;;;5025797;28;20104;-52
2023/08/17 02:48:57;;;;;;;10.52;6.25;;;19.50;99.90;;;;;;5025699;28;20107;-53
2023/08/17 02:51:22;;;;;;;8.10;5.50;;;19.50;99.90;;;;;;5024810;28;20057;-56
2023/08/17 02:53:48;;;;;;;14.43;7.28;;;19.50;99.90;;;;;;5029403;28;20385;-52
2023/08/17 02:56:13;;;;;;;8.00;6.30;;;19.60;99.90;;;;;;5031896;28;20140;-52
2023/08/17 02:58:42;;;;;;;17.65;6.28;;;19.60;99.90;;;;;;5028192;28;20072;-55
2023/08/17 03:01:08;;;;;;;11.45;6.28;;;19.60;99.90;;;;;;5028382;28;20103;-51
2023/08/17 03:03:35;;;;;;;10.65;6.32;;;19.60;99.90;;;;;;5030571;28;20092;-52
2023/08/17 03:06:02;;;;;;;10.07;6.20;;;19.60;99.90;;;;;;5028796;28;20529;-53
2023/08/17 03:08:27;;;;;;;15.35;7.38;;;19.60;99.90;;;;;;5024664;28;20069;-52
2023/08/17 03:10:53;;;;;;;7.90;6.25;;;19.60;99.90;;;;;;5029729;28;20060;-52
2023/08/17 03:13:18;;;;;;;7.85;6.15;;;19.60;99.90;;;;;;5039766;28;20032;-52
2023/08/17 03:15:44;;;;;;;14.45;6.53;;;19.50;99.90;;;;;;5028979;28;20025;-55
2023/08/17 03:18:10;;;;;;;8.60;6.03;;;19.50;99.90;;;;;;5030092;28;20057;-56
2023/08/17 03:20:35;;;;;;;13.38;7.05;;;19.50;99.90;;;;;;5027454;28;20065;-55
2023/08/17 03:23:01;;;;;;;10.05;6.28;;;19.50;99.90;;;;;;5026849;28;20026;-54
2023/08/17 03:25:27;;;;;;;14.02;6.43;;;19.40;99.90;;;;;;5027822;28;20029;-52
2023/08/17 03:27:52;;;;;;;14.45;5.80;;;19.30;99.90;;;;;;5027438;28;20513;-53
2023/08/17 03:30:18;;;;;;;12.55;6.57;;;19.20;99.90;;;;;;5024448;28;20052;-53
2023/08/17 03:32:43;;;;;;;10.57;6.68;;;19.20;99.90;;;;;;5025342;28;20021;-52
2023/08/17 03:35:09;;;;;;;14.02;6.00;;;19.20;99.90;;;;;;5025017;28;20116;-53
2023/08/17 03:37:34;;;;;;;12.43;6.50;;;19.20;99.90;;;;;;5026085;28;22025;-54
2023/08/17 03:40:03;;;;;;;9.93;6.65;;;19.20;99.90;;;;;;5025150;28;20025;-56
2023/08/17 03:42:29;;;;;;;8.90;6.78;;;19.20;99.90;;;;;;5028876;28;20039;-54
2023/08/17 03:44:54;;;;;;;15.85;7.28;;;19.20;99.90;;;;;;5027988;28;20033;-56
2023/08/17 03:47:20;;;;;;;9.75;6.78;;;19.20;99.90;;;;;;5028936;28;20080;-54
2023/08/17 03:49:46;;;;;;;11.90;8.07;;;19.20;99.90;;;;;;5025442;28;20048;-56
2023/08/17 03:52:11;;;;;;;12.40;7.32;;;19.20;99.90;;;;;;5025746;28;20454;-53
2023/08/17 03:54:37;;;;;;;13.15;7.30;;;19.10;99.90;;;;;;5025123;28;20029;-52
2023/08/17 03:57:03;;;;;;;10.77;8.00;;;19.10;99.90;;;;;;5028105;28;20029;-55
2023/08/17 03:59:28;;;;;;;9.70;7.53;;;19.10;99.90;;;;;;5027749;28;20025;-52
2023/08/17 04:01:54;;;;;;;25.92;8.52;;;19.10;99.90;;;;;;5026169;28;20044;-53
2023/08/17 04:04:19;;;;;;;10.80;6.88;;;19.10;99.90;;;;;;5027572;28;20033;-53
2023/08/17 04:06:45;;;;;;;12.40;7.32;;;19.10;99.90;;;;;;5026177;28;20037;-53
2023/08/17 04:09:11;;;;;;;11.90;7.82;;;19.10;99.90;;;;;;5026857;28;20033;-56
2023/08/17 04:11:36;;;;;;;14.40;8.70;;;19.10;99.90;;;;;;5026931;28;20527;-54
2023/08/17 04:14:03;;;;;;;15.07;9.40;;;19.10;99.90;;;;;;5025712;28;20291;-55
2023/08/17 04:16:29;;;;;;;14.35;10.15;;;19.10;99.90;;;;;;5024074;28;20488;-54
2023/08/17 04:18:54;;;;;;;17.60;11.75;;;19.10;99.90;;;;;;5023207;28;20052;-53
2023/08/17 04:21:20;;;;;;;18.25;11.10;;;19.00;99.90;;;;;;5023395;28;20091;-53
2023/08/17 04:23:46;;;;;;;18.20;12.98;;;19.00;99.90;;;;;;5023165;28;20400;-53
2023/08/17 04:26:11;;;;;;;20.88;12.88;;;19.00;99.90;;;;;;5024735;28;20108;-55
2023/08/17 04:28:37;;;;;;;19.48;13.38;;;19.00;99.90;;;;;;5024937;28;20091;-52
2023/08/17 04:31:03;;;;;;;16.95;11.77;;;18.90;99.90;;;;;;5023107;28;20069;-56
2023/08/17 04:33:28;;;;;;;15.98;13.00;;;19.00;99.90;;;;;;5026302;28;20033;-52
2023/08/17 04:35:54;;;;;;;14.50;11.70;;;19.00;99.90;;;;;;5024785;28;20021;-54
2023/08/17 04:38:20;;;;;;;18.25;12.18;;;19.00;99.90;;;;;;5027314;28;20030;-54
2023/08/17 04:40:45;;;;;;;19.17;12.30;;;19.00;99.90;;;;;;5023122;28;20037;-52
2023/08/17 04:43:11;;;;;;;17.38;12.50;;;18.90;99.90;;;;;;5026732;28;20029;-52
2023/08/17 04:45:37;;;;;;;15.02;11.43;;;18.90;99.90;;;;;;5023770;28;20061;-53
2023/08/17 04:48:02;;;;;;;17.08;12.07;;;18.90;99.90;;;;;;5027863;28;20389;-55
2023/08/17 04:50:28;;;;;;;14.70;11.40;;;18.80;99.90;;;;;;5019458;28;20029;-55
2023/08/17 04:52:53;;;;;;;15.93;12.05;;;18.80;99.90;;;;;;5024649;28;20029;-54
2023/08/17 04:55:19;;;;;;;20.60;11.57;;;18.80;99.90;;;;;;5024414;28;20025;-55
2023/08/17 04:57:44;;;;;;;18.75;11.48;;;18.80;99.90;;;;;;5022330;28;20025;-52
2023/08/17 05:00:12;;;;;;;22.77;11.23;;;18.80;99.90;;;;;;5025507;28;20444;-51
2023/08/17 05:02:38;;;;;;;13.63;11.48;;;18.80;99.90;;;;;;5022562;28;20125;-52
2023/08/17 05:05:05;;;;;;;16.55;10.57;;;18.80;99.90;;;;;;5027822;28;20760;-56
2023/08/17 05:07:30;;;;;;;17.65;10.98;;;18.80;99.90;;;;;;5025736;28;20029;-52
2023/08/17 05:09:56;;;;;;;18.55;11.10;;;18.80;99.90;;;;;;5029485;28;20041;-55
2023/08/17 05:12:21;;;;;;;20.48;11.43;;;18.80;99.90;;;;;;5026796;28;20064;-56
2023/08/17 05:14:47;;;;;;;19.48;10.70;;;18.90;99.90;;;;;;5024182;28;20515;-54
2023/08/17 05:17:12;;;;;;;19.90;10.88;;;18.90;99.90;;;;;;5024746;28;20037;-54
2023/08/17 05:19:39;;;;;;;12.50;10.10;;;18.90;99.90;;;;;;5024241;28;20047;-55
2023/08/17 05:22:05;;;;;;;12.10;9.48;;;18.90;99.90;;;;;;5025572;28;20017;-56
2023/08/17 05:24:31;;;;;;;16.73;10.55;;;18.90;99.90;;;;;;5023339;28;20123;-54
2023/08/17 05:26:57;;;;;;;11.65;8.98;;;18.90;99.90;;;;;;5019082;28;20033;-51
2023/08/17 05:29:23;;;;;;;17.85;9.35;;;18.90;99.90;;;;;;5025732;28;20091;-54
2023/08/17 05:31:48;;;;;;;18.10;10.02;;;19.00;99.90;;;;;;5022934;28;20029;-52
2023/08/17 05:34:14;;;;;;;11.27;7.38;;;19.00;99.90;;;;;;5026555;28;20091;-55
2023/08/17 05:36:40;;;;;;;13.05;7.68;;;19.00;99.90;;;;;;5026340;28;20018;-51
2023/08/17 05:39:06;;;;;;;14.98;8.25;;;19.00;99.90;;;;;;5027863;28;20409;-53
2023/08/17 05:41:32;;;;;;;13.57;8.32;;;19.00;99.90;;;;;;5024585;28;20025;-50
2023/08/17 05:43:58;;;;;;;10.57;7.55;;;19.00;99.90;;;;;;5029335;28;20026;-53
2023/08/17 05:46:24;;;;;;;18.58;10.57;;;19.00;99.90;;;;;;5023812;28;20041;-53
2023/08/17 05:48:49;;;;;;;13.73;10.30;;;18.90;99.90;;;;;;5027318;28;20032;-55
2023/08/17 05:51:15;;;;;;;13.45;9.23;;;19.00;99.90;;;;;;5023753;28;20564;-52
2023/08/17 05:53:41;;;;;;;15.48;10.60;;;19.00;99.90;;;;;;5028475;28;20022;-53
2023/08/17 05:56:07;;;;;;;15.13;9.15;;;19.00;99.90;;;;;;5027746;28;20026;-55
2023/08/17 05:58:32;;;;;;;22.23;9.88;;;19.10;99.90;;;;;;5025344;28;20033;-54
2023/08/17 06:01:07;;;;;;;12.20;8.15;;;19.10;99.90;;;;;;5026671;28;20033;-51
2023/08/17 06:03:34;;;;;;;12.45;8.07;;;19.10;99.90;;;;;;5031751;28;20420;-54
2023/08/17 06:05:59;;;;;;;16.58;7.30;;;19.10;99.90;;;;;;5029827;28;20041;-52
2023/08/17 06:08:25;;;;;;;14.60;7.85;;;19.20;99.90;;;;;;5032471;28;20033;-55
2023/08/17 06:10:50;;;;;;;10.02;6.53;;;19.20;99.90;;;;;;5033076;28;20026;-55
2023/08/17 06:13:16;;;;;;;13.25;7.72;;;19.20;99.90;;;;;;5033701;28;20044;-52
2023/08/17 06:15:41;;;;;;;10.77;6.90;;;19.20;99.90;;;;;;5044989;28;20040;-53
2023/08/17 06:18:07;;;;;;;10.63;8.50;;;19.30;99.90;;;;;;5030476;28;20044;-57
2023/08/17 06:20:32;;;;;;;13.15;6.30;;;19.30;99.90;;;;;;5033526;28;20396;-55
2023/08/17 06:22:58;;;;;;;9.00;6.88;;;19.40;99.90;;;;;;5033754;28;20018;-55
2023/08/17 06:25:25;;;;;;;12.65;7.47;;;19.40;99.90;;;;;;5032730;28;20481;-54
2023/08/17 06:27:51;;;;;;;16.58;8.57;;;19.50;99.90;;;;;;5026586;28;20432;-52
2023/08/17 06:30:17;;;;;;;12.10;7.75;;;19.50;99.90;;;;;;5031939;28;20033;-52
2023/08/17 06:32:42;;;;;;;17.05;9.63;;;19.50;99.90;;;;;;5032371;28;20025;-52
2023/08/17 06:35:08;;;;;;;15.30;9.35;;;19.50;99.90;;;;;;5031638;28;20596;-56
2023/08/17 06:37:34;;;;;;;17.83;10.75;;;19.60;99.90;;;;;;5025389;28;20496;-52
2023/08/17 06:39:59;;;;;;;13.98;8.68;;;19.50;99.90;;;;;;5032532;28;20069;-51
2023/08/17 06:42:25;;;;;;;15.95;9.80;;;19.50;99.90;;;;;;5030867;28;20033;-52
2023/08/17 06:44:51;;;;;;;15.02;9.25;;;19.60;99.90;;;;;;5029464;28;20037;-52
2023/08/17 06:47:16;;;;;;;19.83;9.38;;;19.70;99.90;;;;;;5031908;28;20120;-53
2023/08/17 06:49:42;;;;;;;16.90;9.98;;;19.80;99.90;;;;;;5027715;28;20026;-52
2023/08/17 06:52:07;;;;;;;18.77;10.10;;;19.80;99.90;;;;;;5033278;28;20072;-53
2023/08/17 06:54:33;;;;;;;17.20;10.60;;;19.80;99.90;;;;;;5030107;28;20067;-54
2023/08/17 06:56:58;;;;;;;21.92;11.75;;;19.90;99.90;;;;;;5031926;28;20026;-54
2023/08/17 06:59:24;;;;;;;20.92;11.60;;;20.00;99.90;;;;;;5029726;28;20044;-53
2023/08/17 07:01:50;;;;;;;28.25;14.07;;;20.00;99.90;;;;;;5030927;28;20037;-52
2023/08/17 07:04:15;;;;;;;27.55;14.73;;;19.90;99.90;;;;;;5030358;28;20053;-52
2023/08/17 07:06:41;;;;;;;22.00;12.48;;;19.90;99.90;;;;;;5031004;28;20667;-54
2023/08/17 07:09:06;;;;;;;25.63;14.15;;;20.00;99.90;;;;;;5032072;28;20238;-55
2023/08/17 07:11:32;;;;;;;24.05;13.23;;;19.90;99.90;;;;;;5031433;28;20018;-55
2023/08/17 07:13:58;;;;;;;24.65;12.65;;;20.00;99.90;;;;;;5029356;28;20018;-53
2023/08/17 07:16:24;;;;;;;21.30;11.77;;;20.10;99.90;;;;;;5031372;28;20442;-53
2023/08/17 07:18:49;;;;;;;26.45;15.80;;;20.20;99.90;;;;;;5032321;28;20041;-55
2023/08/17 07:21:15;;;;;;;22.88;13.60;;;20.10;99.90;;;;;;5031609;28;20025;-54
2023/08/17 07:23:44;;;;;;;24.38;13.18;;;20.20;99.90;;;;;;5029417;28;20116;-54
2023/08/17 07:26:10;;;;;;;21.40;12.65;;;20.30;99.90;;;;;;5031416;28;20032;-53
2023/08/17 07:28:35;;;;;;;25.38;12.55;;;20.30;99.90;;;;;;5027504;28;20116;-54
2023/08/17 07:31:01;;;;;;;25.50;13.57;;;20.40;99.90;;;;;;5028614;28;20037;-52
2023/08/17 07:33:26;;;;;;;29.45;13.95;;;20.40;99.90;;;;;;5029855;28;20033;-54
2023/08/17 07:35:54;;;;;;;28.70;15.65;;;20.40;99.90;;;;;;5031402;28;20470;-53
2023/08/17 07:38:19;;;;;;;32.17;14.68;;;20.50;99.90;;;;;;5031029;28;20056;-55
2023/08/17 07:40:45;;;;;;;30.23;16.48;;;20.50;99.90;;;;;;5027160;28;20484;-53
2023/08/17 07:43:10;;;;;;;37.85;17.77;;;20.50;99.90;;;;;;5031193;28;20052;-51
2023/08/17 07:45:36;;;;;;;35.50;16.95;;;20.40;99.90;;;;;;5026208;28;20033;-54
2023/08/17 07:48:02;;;;;;;34.58;15.85;;;20.20;99.90;;;;;;5031007;28;20040;-54
2023/08/17 07:50:27;;;;;;;29.25;15.25;;;20.20;99.90;;;;;;5030621;28;20029;-52
2023/08/17 07:52:53;;;;;;;28.77;14.50;;;20.30;99.90;;;;;;5029482;28;20108;-51
2023/08/17 07:55:18;;;;;;;28.90;15.30;;;20.40;99.90;;;;;;5027106;28;20029;-53
2023/08/17 07:57:44;;;;;;;31.90;16.85;;;20.40;99.90;;;;;;5025102;28;20486;-51
2023/08/17 08:00:10;;;;;;;36.05;16.40;;;20.30;99.90;;;;;;5028309;28;20021;-54
2023/08/17 08:02:35;;;;;;;33.17;15.20;;;20.40;99.90;;;;;;5027704;28;20030;-52
2023/08/17 08:05:01;;;;;;;33.63;16.77;;;20.40;99.90;;;;;;5027912;28;20033;-54
2023/08/17 08:07:26;;;;;;;35.00;15.70;;;20.30;99.90;;;;;;5030984;28;20043;-51
2023/08/17 08:09:52;;;;;;;31.42;14.18;;;20.40;99.90;;;;;;5030218;28;20029;-52
2023/08/17 08:12:17;;;;;;;30.02;15.18;;;20.50;99.90;;;;;;5029866;28;20463;-52
2023/08/17 08:14:43;;;;;;;28.65;14.55;;;20.60;99.90;;;;;;5025604;28;20485;-55
2023/08/17 08:17:08;;;;;;;30.00;15.55;;;20.70;99.90;;;;;;5030056;28;20147;-52
2023/08/17 08:19:34;;;;;;;32.65;16.98;;;20.50;99.90;;;;;;5029499;28;20048;-54
2023/08/17 08:22:02;;;;;;;32.95;16.70;;;20.50;99.90;;;;;;5029924;28;20029;-53
2023/08/17 08:24:31;;;;;;;29.65;15.38;;;20.40;99.90;;;;;;5028434;28;20025;-52
2023/08/17 08:26:56;;;;;;;33.35;15.82;;;20.40;99.90;;;;;;5026782;28;20033;-55
2023/08/17 08:29:22;;;;;;;33.67;16.13;;;20.50;99.90;;;;;;5029117;28;20033;-52
2023/08/17 08:31:47;;;;;;;32.38;15.25;;;20.60;99.90;;;;;;5029254;28;20029;-52
2023/08/17 08:34:13;;;;;;;36.20;16.67;;;20.50;99.90;;;;;;5028088;28;20030;-54
2023/08/17 08:36:38;;;;;;;33.60;15.55;;;20.60;99.90;;;;;;5026301;28;20030;-52
2023/08/17 08:39:04;;;;;;;35.38;15.90;;;20.50;99.90;;;;;;5029149;28;20029;-54
2023/08/17 08:41:31;;;;;;;32.33;16.02;;;20.70;99.90;;;;;;5028926;28;20036;-52
2023/08/17 08:43:56;;;;;;;33.28;16.52;;;20.70;99.90;;;;;;5030198;28;20059;-54
2023/08/17 08:46:24;;;;;;;35.17;16.75;;;20.70;99.90;;;;;;5024560;28;20038;-53
2023/08/17 08:48:52;;;;;;;28.48;14.63;;;20.60;99.90;;;;;;5024361;28;20055;-55
2023/08/17 08:51:24;;;;;;;35.83;15.90;;;20.70;99.90;;;;;;5029173;28;20061;-55
2023/08/17 08:54:00;;;;;;;37.28;16.58;;;20.80;99.90;;;;;;5031129;28;20048;-54
2023/08/17 08:56:26;;;;;;;38.00;15.35;;;20.90;99.90;;;;;;5027815;28;20040;-55
2023/08/17 08:58:53;;;;;;;40.90;17.00;;;20.90;99.90;;;;;;5028710;28;20374;-54
2023/08/17 09:01:19;;;;;;;30.35;15.25;;;20.90;99.90;;;;;;5026691;28;20029;-54
2023/08/17 09:03:47;;;;;;;32.45;15.32;;;20.90;99.90;;;;;;5029082;28;20018;-53
2023/08/17 09:06:13;;;;;;;32.67;14.93;;;20.90;99.90;;;;;;5024004;28;20053;-58
2023/08/17 09:08:40;;;;;;;30.02;12.13;;;21.00;99.90;;;;;;5026258;28;20036;-52
2023/08/17 09:11:05;;;;;;;29.48;13.20;;;21.00;99.90;;;;;;5021098;28;20428;-56
2023/08/17 09:13:31;;;;;;;29.60;14.02;;;21.00;99.90;;;;;;5026778;28;20025;-56
2023/08/17 09:15:59;;;;;;;32.38;16.35;;;21.10;99.90;;;;;;5023674;28;20034;-55
2023/08/17 09:18:24;;;;;;;28.08;14.07;;;21.00;99.90;;;;;;5021468;28;20036;-55
2023/08/17 09:20:51;;;;;;;30.13;13.60;;;21.00;99.90;;;;;;5021418;28;20034;-54
2023/08/17 09:23:21;;;;;;;29.63;14.43;;;20.90;99.90;;;;;;5023785;28;20053;-56
2023/08/17 09:25:49;;;;;;;36.53;16.45;;;21.00;99.90;;;;;;5021794;28;20022;-53
2023/08/17 09:28:20;;;;;;;26.83;14.35;;;21.00;99.90;;;;;;5028175;28;20083;-53
2023/08/17 09:30:59;;;;;;;37.72;16.17;;;21.00;99.90;;;;;;5028276;28;20057;-55
2023/08/17 09:33:29;;;;;;;33.13;18.02;;;21.10;99.90;;;;;;5029640;28;20048;-54
2023/08/17 09:35:57;;;;;;;34.42;17.50;;;21.20;99.90;;;;;;5028641;28;20021;-55
2023/08/17 09:38:22;;;;;;;37.10;16.95;;;21.10;99.90;;;;;;5018203;28;20062;-53
2023/08/17 09:40:48;;;;;;;33.17;17.60;;;21.20;99.90;;;;;;5024871;28;20022;-51
2023/08/17 09:43:15;;;;;;;32.92;17.10;;;21.20;99.90;;;;;;5028660;28;20519;-56
2023/08/17 09:45:41;;;;;;;30.50;16.77;;;21.20;99.90;;;;;;5027339;28;20060;-53
2023/08/17 09:48:08;;;;;;;29.05;14.60;;;21.30;99.90;;;;;;5022950;28;20061;-56
2023/08/17 09:50:34;;;;;;;33.22;16.83;;;21.40;99.90;;;;;;5027770;28;20507;-55
2023/08/17 09:53:00;;;;;;;40.72;19.88;;;21.60;99.90;;;;;;5026069;28;20032;-54
2023/08/17 09:55:26;;;;;;;34.58;18.35;;;21.50;99.90;;;;;;5025570;28;20092;-55
2023/08/17 09:57:52;;;;;;;38.53;18.35;;;21.50;99.90;;;;;;5017716;28;20064;-51
2023/08/17 10:00:19;;;;;;;34.70;19.48;;;21.50;99.90;;;;;;5024336;28;20567;-57
2023/08/17 10:02:45;;;;;;;40.45;19.08;;;21.60;99.90;;;;;;5027492;28;20485;-54
2023/08/17 10:05:20;;;;;;;38.63;18.40;;;21.60;99.90;;;;;;5028692;28;20029;-54
2023/08/17 10:07:54;;;;;;;39.35;16.83;;;21.70;99.90;;;;;;5027761;28;20025;-53
2023/08/17 10:10:26;;;;;;;37.45;20.02;;;21.70;99.90;;;;;;5028730;28;20508;-53
2023/08/17 10:13:06;;;;;;;37.38;18.33;;;21.50;99.90;;;;;;5027056;28;20509;-53
2023/08/17 10:15:36;;;;;;;31.13;17.48;;;21.50;99.90;;;;;;5025207;28;20029;-54
2023/08/17 10:18:09;;;;;;;34.08;17.95;;;21.40;99.90;;;;;;5026389;28;20056;-55
2023/08/17 10:20:37;;;;;;;35.00;17.92;;;21.60;99.90;;;;;;5025630;28;20048;-55
2023/08/17 10:23:14;;;;;;;36.70;19.17;;;21.60;99.90;;;;;;5028988;28;20685;-53
2023/08/17 10:25:42;;;;;;;39.58;19.73;;;21.60;99.90;;;;;;5029050;28;20032;-54
2023/08/17 10:28:09;;;;;;;40.33;20.15;;;21.50;99.90;;;;;;5029400;28;20021;-55
2023/08/17 10:30:36;;;;;;;37.72;19.75;;;21.50;99.90;;;;;;5029105;28;20042;-54
2023/08/17 10:33:03;;;;;;;39.33;19.98;;;21.50;99.90;;;;;;5029241;28;20025;-55
2023/08/17 10:35:30;;;;;;;33.08;19.42;;;21.50;99.90;;;;;;5028692;28;20202;-54
2023/08/17 10:37:56;;;;;;;35.35;20.10;;;21.50;99.90;;;;;;5029168;28;20018;-52
2023/08/17 10:40:36;;;;;;;37.05;20.75;;;21.60;99.90;;;;;;5032444;28;20047;-52
2023/08/17 10:43:02;;;;;;;32.97;19.92;;;21.50;99.90;;;;;;5032370;28;20048;-54
2023/08/17 10:45:29;;;;;;;33.22;18.55;;;21.60;99.90;;;;;;5032570;28;20048;-54
2023/08/17 10:48:07;;;;;;;32.15;16.95;;;21.60;99.90;;;;;;5031111;28;20018;-55
2023/08/17 10:50:34;;;;;;;36.08;19.77;;;21.60;99.90;;;;;;5026859;28;20030;-55
2023/08/17 10:53:15;;;;;;;40.05;18.85;;;21.60;99.90;;;;;;5027376;28;20029;-55
2023/08/17 10:55:44;;;;;;;34.28;17.20;;;21.60;99.90;;;;;;5030846;28;20036;-53
2023/08/17 10:58:11;;;;;;;35.72;19.38;;;21.70;99.90;;;;;;5031992;28;20087;-55
2023/08/17 11:00:38;;;;;;;32.05;19.95;;;21.80;99.90;;;;;;5027213;28;20030;-52
2023/08/17 11:03:19;;;;;;;37.90;22.08;;;21.60;99.90;;;;;;5031017;28;21014;-55
2023/08/17 11:05:53;;;;;;;33.20;19.83;;;21.70;99.90;;;;;;5032515;28;20385;-54
2023/08/17 11:08:31;;;;;;;27.67;17.73;;;21.70;99.90;;;;;;5028274;28;20033;-53
2023/08/17 11:11:06;;;;;;;33.08;18.05;;;21.60;99.90;;;;;;5030526;28;20394;-55
2023/08/17 11:13:34;;;;;;;30.15;18.30;;;21.70;99.90;;;;;;5028620;28;20021;-53
2023/08/17 11:16:01;;;;;;;31.40;18.58;;;21.70;99.90;;;;;;5032371;28;20032;-54
2023/08/17 11:18:26;;;;;;;27.75;17.63;;;21.70;99.90;;;;;;5027803;28;20137;-53
2023/08/17 11:20:53;;;;;;;28.08;18.05;;;21.80;99.90;;;;;;5032677;28;20108;-55
2023/08/17 11:23:20;;;;;;;28.27;18.13;;;21.80;99.90;;;;;;5033294;28;20022;-55
2023/08/17 11:25:46;;;;;;;31.85;18.40;;;21.80;99.90;;;;;;5030451;28;20099;-54
2023/08/17 11:28:14;;;;;;;30.83;19.17;;;21.80;99.90;;;;;;5029678;28;20504;-53
2023/08/17 11:30:40;;;;;;;30.27;17.70;;;21.90;99.90;;;;;;5032190;28;20041;-54
2023/08/17 11:33:06;;;;;;;25.98;16.70;;;22.10;99.90;;;;;;5026754;28;20017;-54
2023/08/17 11:35:32;;;;;;;24.70;15.63;;;22.10;99.90;;;;;;5032957;28;20485;-52
2023/08/17 11:37:58;;;;;;;28.75;15.27;;;22.20;99.90;;;;;;5032745;28;20021;-52
2023/08/17 11:40:25;;;;;;;29.63;17.77;;;22.30;99.90;;;;;;5032121;28;20057;-54
2023/08/17 11:42:51;;;;;;;28.15;17.10;;;22.40;99.90;;;;;;5031576;28;20079;-54
2023/08/17 11:45:18;;;;;;;30.33;17.13;;;22.60;99.90;;;;;;5026218;28;20034;-52
2023/08/17 11:47:44;;;;;;;29.77;17.70;;;22.70;99.90;;;;;;5032611;28;20116;-52
2023/08/17 11:50:11;;;;;;;27.48;17.33;;;22.80;99.90;;;;;;5031006;28;20104;-51
2023/08/17 11:52:37;;;;;;;29.10;16.30;;;22.90;99.90;;;;;;5030417;28;20038;-53
2023/08/17 11:55:07;;;;;;;25.10;15.07;;;23.00;99.90;;;;;;5032296;28;20032;-52
2023/08/17 11:57:33;;;;;;;26.38;16.05;;;23.10;99.90;;;;;;5032080;28;20392;-55
2023/08/17 12:00:00;;;;;;;25.67;15.57;;;23.10;99.90;;;;;;5024276;28;20026;-54
2023/08/17 12:02:30;;;;;;;26.25;14.95;;;23.10;99.90;;;;;;5032185;28;20033;-53
2023/08/17 12:04:56;;;;;;;25.15;16.00;;;23.10;99.90;;;;;;5025906;28;20075;-55
2023/08/17 12:07:24;;;;;;;24.70;15.05;;;23.10;99.90;;;;;;5032537;28;20040;-55
2023/08/17 12:09:50;;;;;;;24.70;15.82;;;23.00;99.90;;;;;;5028238;28;20032;-54
2023/08/17 12:12:22;;;;;;;25.65;16.63;;;23.00;99.90;;;;;;5032336;28;20045;-55
2023/08/17 12:14:48;;;;;;;30.33;16.88;;;23.00;99.90;;;;;;5031295;28;20025;-55
2023/08/17 12:17:16;;;;;;;28.70;15.35;;;22.90;99.90;;;;;;5031679;28;20033;-53
2023/08/17 12:19:42;;;;;;;25.98;15.40;;;22.80;99.90;;;;;;5031536;28;20032;-53
2023/08/17 12:22:07;;;;;;;24.30;15.00;;;22.80;99.90;;;;;;5032245;28;20463;-55
2023/08/17 12:24:34;;;;;;;25.05;14.60;;;22.90;99.90;;;;;;5031067;28;20033;-55
2023/08/17 12:27:02;;;;;;;27.60;17.00;;;23.00;99.90;;;;;;5031924;28;20029;-54
2023/08/17 12:29:27;;;;;;;26.13;15.68;;;22.80;99.90;;;;;;5030908;28;20044;-52